createdAt,value
2018-04-27T00:00:02.776Z,8.7
2018-04-27T00:15:03.103Z,8.2
2018-04-27T00:30:02.438Z,7.9
2018-04-27T00:45:02.678Z,7.7
2018-04-27T01:00:03.022Z,7.8
2018-04-27T01:15:02.319Z,7.7
2018-04-27T01:30:02.752Z,7.4
2018-04-27T01:45:02.960Z,7.2
2018-04-27T02:00:02.249Z,7.1
2018-04-27T02:15:02.539Z,7
2018-04-27T02:30:02.882Z,6.8
2018-04-27T02:45:03.126Z,6.5
2018-04-27T03:00:02.412Z,6.5
2018-04-27T03:15:02.774Z,6.3
2018-04-27T03:30:03.169Z,6.2
2018-04-27T03:45:02.496Z,6.1
2018-04-27T04:00:02.712Z,5.8
2018-04-27T04:15:02.963Z,5.8
2018-04-27T04:30:02.314Z,5.7
2018-04-27T04:45:02.677Z,5.6
2018-04-27T05:00:02.912Z,6.1
2018-04-27T05:15:03.113Z,6.4
2018-04-27T05:30:02.608Z,6.8
2018-04-27T05:45:02.978Z,7
2018-04-27T06:00:02.275Z,7.4
2018-04-27T06:15:02.680Z,7.9
2018-04-27T06:30:03.151Z,8.4
2018-04-27T06:45:02.494Z,8.9
2018-04-27T07:00:02.785Z,9.4
2018-04-27T07:15:03.079Z,10
2018-04-27T07:30:02.520Z,10.6
2018-04-27T07:45:02.755Z,11.4
2018-04-27T08:00:03.140Z,12.2
2018-04-27T08:15:02.468Z,13.2
2018-04-27T08:30:02.912Z,14.1
2018-04-27T08:45:03.257Z,15.9
2018-04-27T09:00:02.574Z,16
2018-04-27T09:15:02.977Z,16.2
2018-04-27T09:30:02.349Z,16.9
2018-04-27T09:45:02.595Z,17.5
2018-04-27T10:00:02.927Z,18.3
2018-04-27T10:15:03.245Z,18.4
2018-04-27T10:30:02.765Z,18.8
2018-04-27T10:45:03.053Z,19.5
2018-04-27T11:00:02.343Z,19.6
2018-04-27T11:15:02.631Z,20.4
2018-04-27T11:30:02.954Z,20.7
2018-04-27T11:45:03.275Z,21.6
2018-04-27T12:00:02.555Z,21.6
2018-04-27T12:15:02.789Z,22.1
2018-04-27T12:30:03.158Z,22.8
2018-04-27T12:45:02.509Z,22.6
2018-04-27T13:00:02.836Z,22
2018-04-27T13:15:03.076Z,21.6
2018-04-27T13:30:02.465Z,21.7
2018-04-27T13:45:02.753Z,21.9
2018-04-27T14:00:02.986Z,22.4
2018-04-27T14:15:02.288Z,23.4
2018-04-27T14:30:02.651Z,22.3
2018-04-27T14:45:02.951Z,22.4
2018-04-27T15:00:02.242Z,21.9
2018-04-27T15:15:02.521Z,21.1
2018-04-27T15:30:02.852Z,20.9
2018-04-27T15:45:03.163Z,20.6
2018-04-27T16:00:02.442Z,20.4
2018-04-27T16:15:02.694Z,20
2018-04-27T16:30:02.975Z,19.9
2018-04-27T16:45:02.311Z,19.5
2018-04-27T17:00:02.609Z,19.1
2018-04-27T17:15:02.846Z,18.9
2018-04-27T17:30:03.171Z,18.4
2018-04-27T17:45:02.467Z,18.5
2018-04-27T18:00:02.751Z,17.9
2018-04-27T18:15:02.974Z,17.2
2018-04-27T18:30:02.351Z,17.1
2018-04-27T18:45:02.655Z,16.8
2018-04-27T19:00:03.082Z,16.4
2018-04-27T19:15:02.425Z,15.8
2018-04-27T19:30:02.757Z,14.8
2018-04-27T19:45:03.042Z,14.6
2018-04-27T20:00:02.360Z,14.1
2018-04-27T20:15:02.564Z,14.1
2018-04-27T20:30:02.932Z,13.4
2018-04-27T20:45:03.190Z,13.1
2018-04-27T21:00:02.560Z,13
2018-04-27T21:15:02.791Z,12.5
2018-04-27T21:30:03.142Z,12.7
2018-04-27T21:45:02.437Z,12.2
2018-04-27T22:00:02.782Z,11.9
2018-04-27T22:15:03.009Z,11.7
2018-04-27T22:30:02.448Z,11.6
2018-04-27T22:45:02.746Z,11.3
2018-04-27T23:00:02.980Z,11.2
2018-04-27T23:15:02.260Z,11
2018-04-27T23:30:02.640Z,10.8
2018-04-27T23:45:02.855Z,10.7
